createdAt,value
2022-09-07T00:00:58.556Z,2.20
2022-09-07T00:03:27.974Z,2.30
2022-09-07T00:05:58.274Z,2.37
2022-09-07T00:08:33.162Z,2.33
2022-09-07T00:11:10.619Z,2.73
2022-09-07T00:14:04.604Z,2.63
2022-09-07T00:16:34.779Z,2.10
2022-09-07T00:19:06.922Z,2.30
2022-09-07T00:21:36.842Z,2.20
2022-09-07T00:24:07.758Z,2.13
2022-09-07T00:26:40.258Z,2.30
2022-09-07T00:29:09.205Z,1.90
2022-09-07T00:31:37.794Z,2.00
2022-09-07T00:34:07.786Z,2.30
2022-09-07T00:36:40.090Z,1.70
2022-09-07T00:39:07.617Z,2.27
2022-09-07T00:41:38.379Z,1.80
2022-09-07T00:44:28.188Z,1.90
2022-09-07T00:47:00.103Z,2.00
2022-09-07T00:49:28.977Z,1.97
2022-09-07T00:52:01.136Z,2.10
2022-09-07T00:54:33.818Z,2.20
2022-09-07T00:57:04.910Z,1.93
2022-09-07T00:59:36.155Z,2.10
2022-09-07T01:02:31.579Z,2.00
2022-09-07T01:05:13.827Z,1.90
2022-09-07T01:07:43.644Z,1.70
2022-09-07T01:10:24.016Z,2.07
2022-09-07T01:12:56.925Z,1.83
2022-09-07T01:15:35.687Z,2.00
2022-09-07T01:18:25.684Z,2.00
2022-09-07T01:21:17.517Z,1.70
2022-09-07T01:23:54.266Z,1.83
2022-09-07T01:26:34.957Z,1.63
2022-09-07T01:29:19.676Z,1.80
2022-09-07T01:31:59.398Z,1.70
2022-09-07T01:34:29.508Z,1.60
2022-09-07T01:37:21.192Z,1.70
2022-09-07T01:40:01.725Z,1.47
2022-09-07T01:42:43.988Z,1.87
2022-09-07T01:45:14.629Z,1.77
2022-09-07T01:47:51.342Z,1.73
2022-09-07T01:50:36.979Z,1.83
2022-09-07T01:53:33.821Z,1.77
2022-09-07T01:56:15.523Z,1.53
2022-09-07T01:58:53.665Z,1.50
2022-09-07T02:01:33.516Z,1.90
2022-09-07T02:04:08.619Z,1.40
2022-09-07T02:06:43.777Z,1.60
2022-09-07T02:09:35.859Z,1.37
2022-09-07T02:12:19.842Z,1.80
2022-09-07T02:14:52.664Z,1.60
2022-09-07T02:17:47.467Z,1.20
2022-09-07T02:20:23.892Z,1.33
2022-09-07T02:22:58.338Z,1.60
2022-09-07T02:25:30.762Z,1.60
2022-09-07T02:28:08.852Z,1.23
2022-09-07T02:30:45.399Z,1.50
2022-09-07T02:33:20.096Z,1.40
2022-09-07T02:35:47.621Z,1.50
2022-09-07T02:38:16.135Z,1.13
2022-09-07T02:41:00.715Z,1.37
2022-09-07T02:43:33.505Z,1.33
2022-09-07T02:46:04.875Z,1.17
2022-09-07T02:48:42.001Z,1.23
2022-09-07T02:51:19.482Z,1.20
2022-09-07T02:53:55.536Z,1.73
2022-09-07T02:56:25.106Z,1.30
2022-09-07T02:59:09.660Z,1.30
2022-09-07T03:01:43.345Z,1.27
2022-09-07T03:04:40.903Z,1.30
2022-09-07T03:07:21.964Z,1.33
2022-09-07T03:09:51.364Z,1.20
2022-09-07T03:12:21.310Z,1.30
2022-09-07T03:14:54.703Z,1.30
2022-09-07T03:17:23.247Z,1.40
2022-09-07T03:20:07.272Z,1.40
2022-09-07T03:22:39.134Z,1.40
2022-09-07T03:25:11.330Z,1.30
2022-09-07T03:27:40.897Z,1.10
2022-09-07T03:30:13.816Z,1.20
2022-09-07T03:32:44.898Z,1.20
2022-09-07T03:35:17.796Z,1.00
2022-09-07T03:37:47.531Z,0.97
2022-09-07T03:40:17.515Z,1.40
2022-09-07T03:42:49.300Z,1.00
2022-09-07T03:45:18.316Z,1.13
2022-09-07T03:47:49.953Z,1.00
2022-09-07T03:50:24.075Z,1.10
2022-09-07T03:52:52.707Z,1.10
2022-09-07T03:55:22.150Z,1.20
2022-09-07T03:57:55.141Z,1.20
2022-09-07T04:00:25.358Z,1.10
2022-09-07T04:02:57.431Z,0.93
2022-09-07T04:05:26.898Z,1.13
2022-09-07T04:08:00.237Z,1.27
2022-09-07T04:10:31.019Z,0.97
2022-09-07T04:13:02.816Z,1.20
2022-09-07T04:15:32.466Z,0.90
2022-09-07T04:18:02.759Z,1.30
2022-09-07T04:20:32.493Z,1.10
2022-09-07T04:23:01.996Z,1.30
2022-09-07T04:25:32.558Z,1.10
2022-09-07T04:28:06.371Z,1.20
2022-09-07T04:30:36.556Z,0.80
2022-09-07T04:33:06.506Z,1.20
2022-09-07T04:35:38.124Z,1.00
2022-09-07T04:38:10.580Z,1.10
2022-09-07T04:40:42.327Z,1.17
2022-09-07T04:43:32.032Z,1.20
2022-09-07T04:46:05.146Z,1.10
2022-09-07T04:48:34.613Z,1.17
2022-09-07T04:51:13.266Z,1.00
2022-09-07T04:53:41.663Z,1.10
2022-09-07T04:56:15.035Z,1.10
2022-09-07T04:58:46.926Z,1.10
2022-09-07T05:01:23.730Z,0.90
2022-09-07T05:03:53.826Z,1.03
2022-09-07T05:06:26.101Z,1.10
2022-09-07T05:08:56.382Z,1.20
2022-09-07T05:11:29.078Z,0.90
2022-09-07T05:14:05.863Z,1.00
2022-09-07T05:16:36.031Z,1.03
2022-09-07T05:19:09.600Z,1.20
2022-09-07T05:21:38.138Z,1.33
2022-09-07T05:24:09.349Z,1.13
2022-09-07T05:26:41.413Z,1.10
2022-09-07T05:32:07.563Z,1.10
2022-09-07T05:34:37.858Z,1.50
2022-09-07T05:37:07.823Z,1.30
2022-09-07T05:39:37.542Z,1.20
2022-09-07T05:42:09.892Z,1.33
2022-09-07T05:44:45.729Z,1.10
2022-09-07T05:47:21.111Z,1.10
2022-09-07T05:49:48.755Z,1.43
2022-09-07T05:52:21.197Z,1.30
2022-09-07T05:54:56.559Z,1.50
2022-09-07T05:57:39.709Z,1.50
2022-09-07T06:00:09.824Z,1.40
2022-09-07T06:02:39.873Z,1.90
2022-09-07T06:05:14.351Z,1.30
2022-09-07T06:07:41.899Z,1.47
2022-09-07T06:13:11.166Z,1.70
2022-09-07T06:15:42.277Z,1.50
2022-09-07T06:18:14.840Z,1.57
2022-09-07T06:20:45.596Z,1.80
2022-09-07T06:23:17.049Z,1.60
2022-09-07T06:25:51.755Z,2.10
2022-09-07T06:28:23.305Z,1.40
2022-09-07T06:30:53.034Z,1.83
2022-09-07T06:33:26.117Z,2.10
2022-09-07T06:36:01.876Z,2.07
2022-09-07T06:38:44.073Z,2.30
2022-09-07T06:44:08.835Z,2.17
2022-09-07T06:49:34.003Z,2.07
2022-09-07T06:52:06.033Z,2.03
2022-09-07T06:57:32.342Z,40.57
2022-09-07T07:00:04.074Z,40.07
2022-09-07T07:02:40.873Z,36.53
2022-09-07T07:05:10.621Z,31.17
2022-09-07T07:07:40.282Z,30.13
2022-09-07T07:10:10.643Z,26.93
2022-09-07T07:15:05.628Z,22.50
2022-09-07T07:17:38.145Z,19.73
2022-09-07T07:20:10.577Z,18.67
2022-09-07T07:22:46.421Z,17.17
2022-09-07T07:25:20.763Z,16.77
2022-09-07T07:27:56.839Z,15.70
2022-09-07T07:30:28.655Z,13.50
2022-09-07T07:32:59.850Z,13.13
2022-09-07T07:35:34.403Z,12.30
2022-09-07T07:44:01.329Z,9.07
2022-09-07T07:46:33.532Z,9.27
2022-09-07T07:49:06.499Z,8.70
2022-09-07T07:54:19.719Z,8.23
2022-09-07T07:56:51.474Z,8.57
2022-09-07T07:59:27.250Z,7.87
2022-09-07T08:01:59.631Z,7.50
2022-09-07T08:04:27.886Z,7.17
2022-09-07T08:07:01.947Z,6.47
2022-09-07T08:09:38.366Z,6.50
2022-09-07T08:12:10.197Z,5.83
2022-09-07T08:14:42.155Z,6.57
2022-09-07T08:17:15.635Z,6.60
2022-09-07T08:19:42.751Z,6.00
2022-09-07T08:22:15.695Z,6.23
2022-09-07T08:24:49.670Z,5.33
2022-09-07T08:27:19.725Z,5.40
2022-09-07T08:29:51.552Z,5.10
2022-09-07T08:32:22.629Z,5.80
2022-09-07T08:34:52.803Z,5.33
2022-09-07T08:37:25.069Z,6.00
2022-09-07T08:39:53.968Z,5.33
2022-09-07T08:42:39.342Z,5.47
2022-09-07T08:45:15.712Z,5.57
2022-09-07T08:47:49.866Z,5.47
2022-09-07T08:50:24.295Z,5.20
2022-09-07T08:52:54.839Z,5.13
2022-09-07T08:55:33.254Z,5.93
2022-09-07T08:58:47.788Z,5.63
2022-09-07T09:01:32.861Z,5.50
2022-09-07T09:04:19.324Z,5.20
2022-09-07T09:07:19.125Z,5.07
2022-09-07T09:10:05.051Z,5.17
2022-09-07T09:12:45.030Z,4.50
2022-09-07T09:15:34.752Z,4.53
2022-09-07T09:18:15.651Z,4.30
2022-09-07T09:21:03.192Z,4.97
2022-09-07T09:23:44.229Z,4.30
2022-09-07T09:26:18.849Z,4.70
2022-09-07T09:28:48.923Z,4.87
2022-09-07T09:31:38.219Z,5.10
2022-09-07T09:34:25.488Z,4.90
2022-09-07T09:37:00.273Z,4.47
2022-09-07T09:39:37.537Z,4.23
2022-09-07T09:42:31.168Z,4.63
2022-09-07T09:45:07.382Z,3.80
2022-09-07T09:47:43.676Z,4.23
2022-09-07T09:53:39.792Z,3.77
2022-09-07T09:56:11.835Z,3.70
2022-09-07T09:59:05.961Z,3.77
2022-09-07T10:04:37.310Z,3.10
2022-09-07T10:07:27.277Z,2.90
2022-09-07T10:10:00.669Z,3.20
2022-09-07T10:12:38.646Z,3.20
2022-09-07T10:15:18.386Z,2.57
2022-09-07T10:17:58.371Z,2.67
2022-09-07T10:20:39.951Z,2.90
2022-09-07T10:23:30.425Z,2.83
2022-09-07T10:25:58.883Z,2.33
2022-09-07T10:29:06.415Z,2.50
2022-09-07T10:31:22.882Z,2.23
2022-09-07T10:37:03.588Z,2.43
2022-09-07T10:39:51.790Z,2.40
2022-09-07T10:42:34.581Z,2.40
2022-09-07T10:45:21.522Z,2.13
2022-09-07T10:48:18.967Z,2.10
2022-09-07T10:51:13.434Z,1.90
2022-09-07T10:57:04.478Z,2.00
2022-09-07T11:00:14.499Z,2.10
2022-09-07T11:05:59.308Z,1.80
2022-09-07T11:12:05.100Z,1.70
2022-09-07T11:14:44.528Z,1.70
2022-09-07T11:17:37.435Z,1.77
2022-09-07T11:20:41.739Z,1.80
2022-09-07T11:23:41.032Z,1.50
2022-09-07T11:26:27.947Z,1.50
2022-09-07T11:31:58.160Z,1.63
2022-09-07T11:34:47.428Z,1.50
2022-09-07T11:37:22.789Z,1.50
2022-09-07T11:40:21.570Z,1.77
2022-09-07T11:43:01.998Z,1.87
2022-09-07T11:45:36.718Z,1.80
2022-09-07T11:48:19.585Z,1.57
2022-09-07T11:51:03.925Z,1.30
2022-09-07T11:53:38.583Z,1.50
2022-09-07T11:56:16.977Z,1.53
2022-09-07T11:59:07.496Z,1.40
2022-09-07T12:01:48.950Z,1.90
2022-09-07T12:04:46.168Z,1.87
2022-09-07T12:07:27.358Z,1.33
2022-09-07T12:10:20.106Z,1.53
2022-09-07T12:13:09.049Z,1.50
2022-09-07T12:15:46.794Z,1.47
2022-09-07T12:18:48.906Z,1.53
2022-09-07T12:21:39.742Z,1.33
2022-09-07T12:24:29.837Z,1.60
2022-09-07T12:27:02.897Z,1.47
2022-09-07T12:29:32.986Z,1.20
2022-09-07T12:32:53.097Z,1.70
2022-09-07T12:35:00.224Z,1.33
2022-09-07T12:37:30.754Z,1.60
2022-09-07T12:40:19.199Z,1.43
2022-09-07T12:42:52.428Z,1.40
2022-09-07T12:45:36.595Z,1.43
2022-09-07T12:48:10.641Z,1.80
2022-09-07T12:51:05.753Z,1.40
2022-09-07T12:53:57.714Z,1.43
2022-09-07T12:56:42.159Z,1.50
2022-09-07T12:59:40.855Z,1.40
2022-09-07T13:02:32.478Z,1.20
2022-09-07T13:05:10.252Z,1.17
2022-09-07T13:10:42.437Z,1.20
2022-09-07T13:16:30.902Z,0.97
2022-09-07T13:19:06.212Z,1.10
2022-09-07T13:21:41.262Z,1.10
2022-09-07T13:27:41.059Z,1.00
2022-09-07T13:30:24.169Z,1.03
2022-09-07T13:33:10.227Z,1.00
2022-09-07T13:35:40.639Z,0.90
2022-09-07T13:38:16.641Z,1.00
2022-09-07T13:40:51.019Z,1.20
2022-09-07T13:43:24.481Z,1.30
2022-09-07T13:46:04.035Z,0.90
2022-09-07T13:48:54.538Z,1.10
2022-09-07T13:51:31.354Z,0.80
2022-09-07T13:54:20.006Z,1.00
2022-09-07T13:56:57.366Z,0.90
2022-09-07T13:59:33.728Z,1.40
2022-09-07T14:02:05.877Z,0.90
2022-09-07T14:04:43.011Z,0.80
2022-09-07T14:07:37.459Z,1.30
2022-09-07T14:10:27.405Z,1.00
2022-09-07T14:12:57.372Z,0.90
2022-09-07T14:15:30.058Z,0.80
2022-09-07T14:18:10.918Z,1.13
2022-09-07T14:20:45.643Z,1.07
2022-09-07T14:23:34.718Z,1.10
2022-09-07T14:26:21.562Z,1.03
2022-09-07T14:28:53.851Z,1.27
2022-09-07T14:31:25.190Z,0.80
2022-09-07T14:34:01.850Z,0.60
2022-09-07T14:36:47.826Z,1.10
2022-09-07T14:39:20.904Z,0.87
2022-09-07T14:41:51.866Z,0.70
2022-09-07T14:44:36.228Z,0.80
2022-09-07T14:47:29.274Z,0.83
2022-09-07T14:50:03.236Z,0.77
2022-09-07T14:52:43.634Z,0.83
2022-09-07T14:55:33.565Z,0.80
2022-09-07T14:58:18.838Z,0.80
2022-09-07T15:03:54.925Z,0.93
2022-09-07T15:09:38.341Z,0.70
2022-09-07T15:12:19.367Z,0.67
2022-09-07T15:14:51.657Z,0.80
2022-09-07T15:17:48.379Z,0.70
2022-09-07T15:20:42.128Z,0.70
2022-09-07T15:23:16.340Z,0.67
2022-09-07T15:25:50.416Z,0.60
2022-09-07T15:31:42.232Z,0.70
2022-09-07T15:34:16.307Z,0.60
2022-09-07T15:38:01.066Z,0.77
2022-09-07T15:39:57.057Z,0.70
2022-09-07T15:45:26.847Z,0.53
2022-09-07T15:47:58.565Z,0.80
2022-09-07T15:50:31.272Z,0.53
2022-09-07T15:53:01.762Z,0.80
2022-09-07T15:55:32.949Z,0.50
2022-09-07T15:58:11.461Z,0.73
2022-09-07T16:04:01.667Z,0.70
2022-09-07T16:09:15.070Z,0.97
2022-09-07T16:11:43.451Z,0.83
2022-09-07T16:14:16.205Z,1.10
2022-09-07T16:19:36.289Z,0.90
2022-09-07T16:22:09.677Z,0.90
2022-09-07T16:24:44.588Z,0.80
2022-09-07T16:27:13.594Z,0.87
2022-09-07T16:29:45.243Z,1.17
2022-09-07T16:35:03.334Z,1.10
2022-09-07T16:37:35.394Z,0.70
2022-09-07T16:43:00.068Z,0.70
2022-09-07T16:48:20.246Z,0.80
2022-09-07T16:51:01.253Z,0.80
2022-09-07T16:53:36.260Z,0.70
2022-09-07T16:56:08.457Z,0.80
2022-09-07T16:58:43.374Z,0.77
2022-09-07T17:01:16.036Z,0.90
2022-09-07T17:03:44.808Z,0.80
2022-09-07T17:06:15.361Z,1.10
2022-09-07T17:08:44.389Z,1.10
2022-09-07T17:11:33.266Z,1.23
2022-09-07T17:14:07.446Z,1.13
2022-09-07T17:16:43.226Z,1.27
2022-09-07T17:19:30.328Z,1.10
2022-09-07T17:22:04.826Z,1.30
2022-09-07T17:24:36.026Z,1.20
2022-09-07T17:27:17.852Z,1.43
2022-09-07T17:29:46.304Z,1.57
2022-09-07T17:32:25.074Z,1.20
2022-09-07T17:34:58.105Z,1.30
2022-09-07T17:37:29.572Z,1.40
2022-09-07T17:40:05.404Z,1.20
2022-09-07T17:45:31.790Z,1.50
2022-09-07T17:48:02.675Z,1.23
2022-09-07T17:50:33.995Z,1.30
2022-09-07T17:53:04.839Z,1.50
2022-09-07T17:55:35.801Z,1.60
2022-09-07T17:58:06.751Z,1.20
2022-09-07T18:00:38.926Z,1.50
2022-09-07T18:03:13.850Z,1.40
2022-09-07T18:05:51.349Z,1.53
2022-09-07T18:08:19.970Z,1.43
2022-09-07T18:13:44.651Z,1.70
2022-09-07T18:16:20.684Z,1.60
2022-09-07T18:18:52.850Z,1.60
2022-09-07T18:21:33.413Z,2.00
2022-09-07T18:24:07.987Z,1.73
2022-09-07T18:26:43.298Z,1.80
2022-09-07T18:29:27.759Z,1.70
2022-09-07T18:32:00.670Z,1.77
2022-09-07T18:34:29.210Z,1.40
2022-09-07T18:37:01.443Z,1.77
2022-09-07T18:39:33.676Z,1.67
2022-09-07T18:42:04.696Z,1.60
2022-09-07T18:47:31.457Z,1.60
2022-09-07T18:50:06.636Z,2.00
2022-09-07T18:55:26.649Z,1.90
2022-09-07T18:57:57.254Z,1.60
2022-09-07T19:00:27.738Z,1.97
2022-09-07T19:02:59.719Z,1.60
2022-09-07T19:08:20.270Z,1.93
2022-09-07T19:10:49.678Z,1.47
2022-09-07T19:13:22.155Z,2.00
2022-09-07T19:15:52.350Z,1.50
2022-09-07T19:18:23.373Z,1.60
2022-09-07T19:20:55.256Z,1.60
2022-09-07T19:23:27.389Z,1.73
2022-09-07T19:25:55.478Z,1.97
2022-09-07T19:28:25.997Z,1.80
2022-09-07T19:30:58.588Z,1.80
2022-09-07T19:33:30.637Z,1.80
2022-09-07T19:35:59.478Z,1.90
2022-09-07T19:38:28.993Z,1.97
2022-09-07T19:43:43.041Z,2.00
2022-09-07T19:46:24.122Z,2.10
2022-09-07T19:49:03.545Z,1.73
2022-09-07T19:51:36.814Z,1.73
2022-09-07T19:54:10.673Z,1.80
2022-09-07T19:56:39.943Z,1.90
2022-09-07T19:59:35.912Z,2.10
2022-09-07T20:02:08.443Z,2.50
2022-09-07T20:07:26.303Z,2.27
2022-09-07T20:09:57.080Z,2.50
2022-09-07T20:12:27.364Z,2.20
2022-09-07T20:14:57.485Z,2.30
2022-09-07T20:17:33.078Z,2.17
2022-09-07T20:20:16.325Z,1.97
2022-09-07T20:22:53.611Z,2.00
2022-09-07T20:25:24.373Z,2.17
2022-09-07T20:27:55.141Z,1.90
2022-09-07T20:30:32.445Z,1.57
2022-09-07T20:33:05.948Z,1.97
2022-09-07T20:35:37.823Z,2.20
2022-09-07T20:38:12.097Z,2.03
2022-09-07T20:40:44.968Z,1.87
2022-09-07T20:43:22.506Z,1.70
2022-09-07T20:45:53.350Z,2.17
2022-09-07T20:48:23.993Z,1.77
2022-09-07T20:50:57.714Z,2.00
2022-09-07T20:53:27.864Z,1.57
2022-09-07T20:56:08.498Z,2.03
2022-09-07T20:58:38.333Z,1.67
2022-09-07T21:01:08.483Z,2.07
2022-09-07T21:03:36.999Z,1.90
2022-09-07T21:06:10.595Z,1.90
2022-09-07T21:08:56.639Z,1.70
2022-09-07T21:11:26.546Z,1.80
2022-09-07T21:13:58.542Z,1.93
2022-09-07T21:16:30.539Z,1.60
2022-09-07T21:19:05.454Z,2.00
2022-09-07T21:21:39.404Z,1.97
2022-09-07T21:24:22.739Z,1.90
2022-09-07T21:26:52.665Z,1.90
2022-09-07T21:29:29.510Z,1.80
2022-09-07T21:31:59.940Z,1.67
2022-09-07T21:34:35.724Z,1.93
2022-09-07T21:37:05.440Z,1.60
2022-09-07T21:39:35.957Z,1.80
2022-09-07T21:42:08.967Z,1.87
2022-09-07T21:44:39.056Z,1.70
2022-09-07T21:47:11.838Z,2.00
2022-09-07T21:49:41.942Z,1.73
2022-09-07T21:52:17.370Z,1.60
2022-09-07T21:54:49.127Z,2.30
2022-09-07T21:57:20.080Z,1.90
2022-09-07T21:59:47.770Z,1.97
2022-09-07T22:02:19.001Z,2.10
2022-09-07T22:04:48.190Z,1.83
2022-09-07T22:07:19.238Z,2.10
2022-09-07T22:09:48.926Z,2.20
2022-09-07T22:15:05.134Z,2.30
2022-09-07T22:17:36.787Z,2.43
2022-09-07T22:20:08.332Z,1.90
2022-09-07T22:22:38.758Z,2.33
2022-09-07T22:25:10.958Z,2.00
2022-09-07T22:27:41.286Z,2.20
2022-09-07T22:30:13.667Z,2.03
2022-09-07T22:35:43.228Z,2.13
2022-09-07T22:38:12.378Z,1.87
2022-09-07T22:40:44.642Z,2.20
2022-09-07T22:43:14.485Z,1.80
2022-09-07T22:45:44.397Z,1.50
2022-09-07T22:48:16.166Z,2.07
2022-09-07T22:50:51.345Z,2.40
2022-09-07T22:53:23.494Z,2.50
2022-09-07T22:55:56.142Z,1.90
2022-09-07T22:58:34.983Z,1.93
2022-09-07T23:01:04.294Z,1.80
2022-09-07T23:03:37.081Z,2.13
2022-09-07T23:06:07.642Z,1.77
2022-09-07T23:08:41.850Z,2.17
2022-09-07T23:11:12.235Z,2.17
2022-09-07T23:13:42.752Z,2.43
2022-09-07T23:16:14.558Z,2.33
2022-09-07T23:18:44.987Z,2.30
2022-09-07T23:21:16.920Z,2.30
2022-09-07T23:23:46.394Z,2.20
2022-09-07T23:26:15.787Z,2.40
2022-09-07T23:28:47.772Z,2.63
2022-09-07T23:31:16.719Z,2.73
2022-09-07T23:33:52.923Z,2.87
2022-09-07T23:36:25.092Z,2.60
2022-09-07T23:39:03.895Z,2.40
2022-09-07T23:41:32.278Z,2.13
2022-09-07T23:44:04.859Z,2.53
2022-09-07T23:46:34.214Z,2.50
2022-09-07T23:49:05.752Z,2.37
2022-09-07T23:51:36.842Z,2.30
2022-09-07T23:54:08.743Z,2.10
2022-09-07T23:56:40.076Z,2.20
2022-09-07T23:59:12.966Z,2.20
